Time;durP1;ratioP1;P1;durP2;ratioP2;P2;SDS_P1;SDS_P2;PMS_P1;PMS_P2;Temp;Humidity;BMP_temperature;BMP_pressure;BME280_temperature;BME280_humidity;BME280_pressure;Samples;Min_cycle;Max_cycle;Signal;HPM_P1;HPM_P2
2021/12/09 00:02:28;;;;;;;;;;;;;;;26.66;61.40;96416.58;605213;234;64970;-59
2021/12/09 00:04:57;;;;;;;;;;;;;;;26.66;59.52;96425.45;605208;234;64886;-59
2021/12/09 00:07:24;;;;;;;;;;;;;;;26.67;62.06;96431.63;605160;234;67187;-59
2021/12/09 00:09:52;;;;;;;;;;;;;;;26.65;62.65;96434.63;605221;234;65095;-59
2021/12/09 00:12:22;;;;;;;;;;;;;;;26.64;62.12;96434.97;605174;234;64873;-59
2021/12/09 00:14:49;;;;;;;;;;;;;;;26.62;64.00;96435.28;605170;232;65042;-59
2021/12/09 00:17:16;;;;;;;;;;;;;;;26.62;63.66;96445.27;605193;234;62936;-59
2021/12/09 00:19:44;;;;;;;;;;;;;;;26.59;63.45;96437.83;605184;232;65004;-59
2021/12/09 00:22:12;;;;;;;;;;;;;;;26.58;62.42;96442.44;605224;234;64946;-59
2021/12/09 00:24:40;;;;;;;;;;;;;;;26.58;63.78;96444.34;605162;234;64894;-58
2021/12/09 00:27:07;;;;;;;;;;;;;;;26.58;63.45;96450.52;605199;234;64627;-59
2021/12/09 00:29:35;;;;;;;;;;;;;;;26.58;62.46;96445.13;605177;234;67385;-58
2021/12/09 00:32:04;;;;;;;;;;;;;;;26.56;56.75;96448.14;605147;234;65053;-58
2021/12/09 00:34:34;;;;;;;;;;;;;;;26.56;61.00;96450.05;605230;234;67488;-59
2021/12/09 00:37:15;;;;;;;;;;;;;;;26.56;62.65;96445.44;605195;234;67201;-59
2021/12/09 00:39:31;;;;;;;;;;;;;;;26.53;63.32;96445.30;604738;234;64971;-59
2021/12/09 00:41:59;;;;;;;;;;;;;;;26.52;61.07;96452.59;605183;234;67215;-58
2021/12/09 00:44:27;;;;;;;;;;;;;;;26.53;59.73;96456.08;605197;234;66900;-59
2021/12/09 00:46:54;;;;;;;;;;;;;;;26.53;63.92;96454.17;605172;234;65115;-59
2021/12/09 00:49:21;;;;;;;;;;;;;;;26.50;64.55;96454.00;605226;234;64896;-59
2021/12/09 00:51:49;;;;;;;;;;;;;;;26.49;62.69;96463.17;605156;234;67061;-59
2021/12/09 00:54:16;;;;;;;;;;;;;;;26.48;64.52;96445.44;607547;233;65114;-59
2021/12/09 00:56:44;;;;;;;;;;;;;;;26.49;65.61;96455.91;608627;233;67159;-59
2021/12/09 00:59:11;;;;;;;;;;;;;;;26.47;64.11;96458.13;608654;233;66883;-59
2021/12/09 01:01:39;;;;;;;;;;;;;;;26.48;59.93;96453.52;608691;233;64879;-59
2021/12/09 01:04:06;;;;;;;;;;;;;;;26.46;61.05;96450.34;608650;233;67284;-59
2021/12/09 01:06:34;;;;;;;;;;;;;;;26.47;63.48;96449.25;608623;233;67040;-58
2021/12/09 01:09:02;;;;;;;;;;;;;;;26.44;61.56;96442.59;608653;233;65055;-59
2021/12/09 01:11:30;;;;;;;;;;;;;;;26.44;62.10;96434.52;608632;233;67253;-59
2021/12/09 01:13:57;;;;;;;;;;;;;;;26.43;64.33;96449.08;608759;233;66494;-59
2021/12/09 01:16:25;;;;;;;;;;;;;;;26.43;63.30;96442.91;608661;233;65024;-59
2021/12/09 01:18:53;;;;;;;;;;;;;;;26.41;61.04;96439.73;608628;233;66915;-64
2021/12/09 01:21:20;;;;;;;;;;;;;;;26.41;58.48;96431.65;608652;233;67016;-64
2021/12/09 01:23:48;;;;;;;;;;;;;;;26.39;60.32;96437.38;608675;233;62576;-64
2021/12/09 01:26:15;;;;;;;;;;;;;;;26.40;64.06;96438.16;608691;233;64645;-64
2021/12/09 01:28:51;;;;;;;;;;;;;;;26.36;63.26;96435.33;608684;233;66839;-64
2021/12/09 01:31:24;;;;;;;;;;;;;;;26.38;64.14;96429.60;608488;233;65052;-65
2021/12/09 01:33:46;;;;;;;;;;;;;;;26.35;61.72;96425.64;608361;233;67001;-65
2021/12/09 01:36:14;;;;;;;;;;;;;;;26.33;64.64;96425.19;608637;233;64946;-64
2021/12/09 01:38:41;;;;;;;;;;;;;;;26.31;62.73;96417.42;608727;233;62832;-64
2021/12/09 01:41:09;;;;;;;;;;;;;;;26.34;60.69;96407.91;608647;233;65419;-65
2021/12/09 01:43:37;;;;;;;;;;;;;;;26.30;58.38;96413.16;608661;233;66938;-64
2021/12/09 01:46:12;;;;;;;;;;;;;;;26.32;62.93;96418.98;608619;233;63013;-64
2021/12/09 01:48:41;;;;;;;;;;;;;;;26.29;62.79;96416.16;608630;233;67432;-59
2021/12/09 01:51:09;;;;;;;;;;;;;;;26.27;62.50;96408.41;608707;233;64774;-58
2021/12/09 01:53:37;;;;;;;;;;;;;;;26.26;64.08;96414.10;608606;233;63080;-58
2021/12/09 01:56:06;;;;;;;;;;;;;;;26.29;63.02;96405.38;608639;233;64998;-59
2021/12/09 01:58:33;;;;;;;;;;;;;;;26.28;61.38;96401.11;608646;233;64591;-59
2021/12/09 02:01:01;;;;;;;;;;;;;;;26.26;63.62;96397.94;608646;233;64996;-58
2021/12/09 02:03:29;;;;;;;;;;;;;;;26.24;64.30;96406.33;608700;231;67246;-58
2021/12/09 02:05:57;;;;;;;;;;;;;;;26.25;60.45;96410.63;608640;233;67050;-58
2021/12/09 02:08:25;;;;;;;;;;;;;;;26.25;60.74;96397.16;608641;233;64873;-58
2021/12/09 02:10:52;;;;;;;;;;;;;;;26.21;64.14;96398.89;608580;233;67249;-59
2021/12/09 02:13:20;;;;;;;;;;;;;;;26.21;64.17;96392.72;608664;233;67041;-58
2021/12/09 02:15:51;;;;;;;;;;;;;;;26.18;60.08;96391.45;608675;233;62683;-59
2021/12/09 02:18:17;;;;;;;;;;;;;;;26.17;59.37;96397.97;608610;232;64941;-58
2021/12/09 02:20:45;;;;;;;;;;;;;;;26.18;63.16;96396.05;608638;233;66926;-59
2021/12/09 02:23:16;;;;;;;;;;;;;;;26.17;62.68;96403.35;608620;233;65052;-59
2021/12/09 02:25:44;;;;;;;;;;;;;;;26.17;62.75;96392.58;608571;232;65001;-58
2021/12/09 02:28:14;;;;;;;;;;;;;;;26.18;58.41;96393.36;608666;233;66828;-58
2021/12/09 02:30:41;;;;;;;;;;;;;;;26.16;63.97;96384.80;608693;233;65125;-58
2021/12/09 02:33:09;;;;;;;;;;;;;;;26.16;59.26;96382.11;608621;233;67190;-58
2021/12/09 02:35:38;;;;;;;;;;;;;;;26.13;59.05;96383.54;608632;233;67325;-64
2021/12/09 02:38:07;;;;;;;;;;;;;;;26.14;59.67;96371.67;608635;233;64980;-64
2021/12/09 02:40:35;;;;;;;;;;;;;;;26.13;61.76;96359.30;608670;233;65950;-64
2021/12/09 02:43:05;;;;;;;;;;;;;;;26.13;59.29;96370.86;608704;233;64835;-59
2021/12/09 02:45:33;;;;;;;;;;;;;;;26.09;61.00;96375.32;608664;233;65048;-58
2021/12/09 02:48:00;;;;;;;;;;;;;;;26.10;62.80;96376.11;608671;233;64852;-64
2021/12/09 02:50:28;;;;;;;;;;;;;;;26.07;66.71;96382.91;608609;233;64863;-64
2021/12/09 02:52:55;;;;;;;;;;;;;;;26.05;61.48;96400.50;608684;233;63050;-64
2021/12/09 02:55:23;;;;;;;;;;;;;;;26.06;60.51;96399.41;608686;233;66942;-64
2021/12/09 02:57:53;;;;;;;;;;;;;;;26.06;60.32;96399.41;608662;233;66998;-64
2021/12/09 03:00:21;;;;;;;;;;;;;;;26.06;60.99;96396.72;608675;233;65150;-64
2021/12/09 03:02:49;;;;;;;;;;;;;;;26.04;60.08;96404.31;608663;233;65067;-64
2021/12/09 03:05:16;;;;;;;;;;;;;;;26.01;60.26;96405.73;608665;233;64982;-64
2021/12/09 03:07:44;;;;;;;;;;;;;;;26.01;59.25;96416.51;608698;231;62847;-64
2021/12/09 03:10:19;;;;;;;;;;;;;;;26.00;61.67;96409.55;608703;233;67303;-64
2021/12/09 03:12:43;;;;;;;;;;;;;;;26.01;58.72;96421.11;601772;235;66921;-64
2021/12/09 03:15:11;;;;;;;;;;;;;;;26.00;61.46;96417.63;608702;233;65152;-64
2021/12/09 03:17:40;;;;;;;;;;;;;;;25.99;60.29;96420.63;608677;233;67212;-64
2021/12/09 03:20:13;;;;;;;;;;;;;;;26.00;59.45;96420.32;608730;233;65733;-64
2021/12/09 03:22:38;;;;;;;;;;;;;;;25.96;58.97;96413.97;601868;235;65222;-64
2021/12/09 03:25:07;;;;;;;;;;;;;;;25.97;58.33;96420.14;601589;236;67246;-64
2021/12/09 03:27:35;;;;;;;;;;;;;;;25.97;57.92;96409.38;608713;233;64945;-64
2021/12/09 03:30:03;;;;;;;;;;;;;;;25.98;62.27;96405.59;608664;231;63658;-64
2021/12/09 03:32:31;;;;;;;;;;;;;;;25.95;61.03;96398.94;608724;233;64853;-65
2021/12/09 03:34:58;;;;;;;;;;;;;;;25.93;59.19;96403.84;608731;233;64566;-65
2021/12/09 03:37:27;;;;;;;;;;;;;;;25.93;59.05;96397.67;608699;233;63061;-64
2021/12/09 03:39:55;;;;;;;;;;;;;;;25.91;60.55;96398.77;608709;233;67212;-65
2021/12/09 03:42:24;;;;;;;;;;;;;;;25.91;58.72;96400.67;608739;233;66806;-64
2021/12/09 03:44:52;;;;;;;;;;;;;;;25.89;61.63;96398.31;608673;233;65073;-64
2021/12/09 03:47:21;;;;;;;;;;;;;;;25.87;61.03;96405.13;608714;233;67432;-65
2021/12/09 03:49:49;;;;;;;;;;;;;;;25.88;62.84;96406.69;608672;233;67239;-65
2021/12/09 03:52:17;;;;;;;;;;;;;;;25.85;62.44;96408.12;608706;233;65152;-65
2021/12/09 03:54:45;;;;;;;;;;;;;;;25.88;60.00;96420.16;605593;233;67189;-65
2021/12/09 03:57:13;;;;;;;;;;;;;;;25.86;60.96;96422.36;605192;234;66947;-65
2021/12/09 03:59:41;;;;;;;;;;;;;;;25.85;61.22;96424.27;605250;234;62907;-65
2021/12/09 04:02:09;;;;;;;;;;;;;;;25.86;61.87;96428.56;605240;234;64856;-65
2021/12/09 04:04:36;;;;;;;;;;;;;;;25.82;61.32;96424.88;605241;234;65151;-65
2021/12/09 04:07:04;;;;;;;;;;;;;;;25.81;62.16;96412.53;605242;234;63096;-65
2021/12/09 04:09:32;;;;;;;;;;;;;;;25.80;62.45;96416.31;605220;234;66962;-65
2021/12/09 04:11:59;;;;;;;;;;;;;;;25.79;61.82;96408.58;605214;234;66991;-65
2021/12/09 04:14:27;;;;;;;;;;;;;;;25.77;58.74;96410.78;605225;234;65016;-65
2021/12/09 04:16:56;;;;;;;;;;;;;;;25.77;60.71;96416.95;605224;234;67439;-65
2021/12/09 04:19:23;;;;;;;;;;;;;;;25.77;59.70;96416.95;605223;234;67090;-64
2021/12/09 04:21:51;;;;;;;;;;;;;;;25.77;60.57;96422.34;605222;234;65022;-64
2021/12/09 04:24:20;;;;;;;;;;;;;;;25.75;59.01;96424.55;605213;234;67092;-65
2021/12/09 04:26:49;;;;;;;;;;;;;;;25.76;58.93;96419.98;605227;234;64957;-64
2021/12/09 04:29:17;;;;;;;;;;;;;;;25.75;57.55;96424.55;605231;234;62908;-64
2021/12/09 04:31:47;;;;;;;;;;;;;;;25.74;62.11;96432.95;605257;234;65062;-64
2021/12/09 04:34:15;;;;;;;;;;;;;;;25.73;61.82;96425.97;605221;234;64975;-64
2021/12/09 04:36:42;;;;;;;;;;;;;;;25.71;63.04;96417.44;605199;234;62903;-64
2021/12/09 04:39:10;;;;;;;;;;;;;;;25.69;61.19;96418.53;605188;234;67235;-64
2021/12/09 04:41:38;;;;;;;;;;;;;;;25.68;63.64;96422.34;605180;234;66880;-64
2021/12/09 04:44:06;;;;;;;;;;;;;;;25.69;64.75;96415.83;605216;234;65054;-58
2021/12/09 04:46:34;;;;;;;;;;;;;;;25.67;64.59;96407.31;605224;234;64839;-58
2021/12/09 04:49:01;;;;;;;;;;;;;;;25.66;60.53;96400.33;605193;234;64787;-58
2021/12/09 04:51:29;;;;;;;;;;;;;;;25.65;65.19;96404.13;605194;234;62928;-58
2021/12/09 04:53:56;;;;;;;;;;;;;;;25.65;61.04;96411.42;607083;233;64996;-58
2021/12/09 04:56:24;;;;;;;;;;;;;;;25.65;62.64;96414.11;608719;233;64723;-58
2021/12/09 04:58:52;;;;;;;;;;;;;;;25.65;62.02;96416.80;608715;233;63034;-58
2021/12/09 05:01:20;;;;;;;;;;;;;;;25.64;59.72;96404.44;608678;233;65023;-58
2021/12/09 05:03:48;;;;;;;;;;;;;;;25.63;59.98;96403.65;608644;230;67389;-58
2021/12/09 05:06:16;;;;;;;;;;;;;;;25.61;60.55;96413.93;608683;233;62744;-58
2021/12/09 05:08:47;;;;;;;;;;;;;;;25.62;61.46;96420.13;608690;233;65018;-58
2021/12/09 05:14:01;;;;;;;;;;;;;;;25.60;63.69;96416.95;608700;233;65132;-59
2021/12/09 05:16:29;;;;;;;;;;;;;;;25.58;61.66;96424.54;608677;233;67979;-59
2021/12/09 05:19:00;;;;;;;;;;;;;;;25.57;60.60;96423.75;608703;233;66777;-59
2021/12/09 05:21:29;;;;;;;;;;;;;;;25.58;61.95;96433.40;608728;233;65256;-58
2021/12/09 05:23:57;;;;;;;;;;;;;;;25.56;64.48;96443.67;608712;233;66732;-58
2021/12/09 05:26:29;;;;;;;;;;;;;;;25.56;60.67;96445.58;608719;233;66750;-58
2021/12/09 05:28:56;;;;;;;;;;;;;;;25.55;61.48;96441.31;608606;232;63900;-58
2021/12/09 05:34:10;;;;;;;;;;;;;;;25.55;62.90;96454.77;608638;233;66761;-59
2021/12/09 05:36:38;;;;;;;;;;;;;;;25.53;61.84;96454.28;608722;233;64742;-59
2021/12/09 05:39:07;;;;;;;;;;;;;;;25.54;62.53;96470.13;608661;233;66754;-59
2021/12/09 05:41:34;;;;;;;;;;;;;;;25.53;61.05;96468.52;608710;233;64727;-59
2021/12/09 05:44:02;;;;;;;;;;;;;;;25.54;65.48;96463.95;608680;233;63032;-59
2021/12/09 05:46:30;;;;;;;;;;;;;;;25.51;60.23;96467.25;608717;233;67225;-59
2021/12/09 05:48:58;;;;;;;;;;;;;;;25.53;64.93;96467.73;608664;233;67094;-59
2021/12/09 05:51:25;;;;;;;;;;;;;;;25.52;63.50;96461.56;608672;233;64996;-59
2021/12/09 05:53:55;;;;;;;;;;;;;;;25.51;61.01;96467.25;608608;233;67064;-59
2021/12/09 05:56:23;;;;;;;;;;;;;;;25.51;63.55;96468.06;608696;233;64864;-59
2021/12/09 05:58:50;;;;;;;;;;;;;;;25.52;63.36;96471.54;608672;233;63062;-59
2021/12/09 06:01:18;;;;;;;;;;;;;;;25.54;65.52;96474.72;608697;233;64856;-65
2021/12/09 06:03:45;;;;;;;;;;;;;;;25.54;66.17;96482.79;608714;233;67253;-66
2021/12/09 06:06:13;;;;;;;;;;;;;;;25.54;61.56;96480.88;608646;233;65272;-65
2021/12/09 06:08:40;;;;;;;;;;;;;;;25.50;67.86;96479.13;608701;233;67090;-66
2021/12/09 06:11:10;;;;;;;;;;;;;;;25.50;67.58;96481.81;608705;233;66616;-65
2021/12/09 06:13:38;;;;;;;;;;;;;;;25.53;65.71;96475.80;608701;233;63027;-65
2021/12/09 06:16:06;;;;;;;;;;;;;;;25.55;67.56;96476.30;608704;233;67055;-65
2021/12/09 06:18:34;;;;;;;;;;;;;;;25.54;65.90;96472.81;608609;233;67163;-65
2021/12/09 06:21:02;;;;;;;;;;;;;;;25.54;66.82;96482.79;608699;233;65159;-65
2021/12/09 06:23:29;;;;;;;;;;;;;;;25.52;68.12;96485.78;608697;233;67323;-65
2021/12/09 06:25:57;;;;;;;;;;;;;;;25.54;67.16;96488.17;608727;233;67061;-65
2021/12/09 06:28:24;;;;;;;;;;;;;;;25.55;68.72;96482.46;608688;233;65109;-66
2021/12/09 06:30:52;;;;;;;;;;;;;;;25.52;67.38;96480.40;608733;233;67126;-66
2021/12/09 06:33:19;;;;;;;;;;;;;;;25.54;66.21;96474.72;608641;233;64541;-65
2021/12/09 06:35:47;;;;;;;;;;;;;;;25.55;66.02;96462.84;608691;233;62910;-65
2021/12/09 06:38:16;;;;;;;;;;;;;;;25.54;67.98;96461.27;608677;233;64598;-59
2021/12/09 06:40:45;;;;;;;;;;;;;;;25.55;67.30;96457.45;608511;233;66990;-59
2021/12/09 06:43:13;;;;;;;;;;;;;;;25.57;67.48;96456.04;601842;234;65171;-59
2021/12/09 06:45:41;;;;;;;;;;;;;;;25.57;66.65;96449.87;608700;233;65122;-59
2021/12/09 06:48:09;;;;;;;;;;;;;;;25.59;68.90;96453.84;608663;233;64772;-59
2021/12/09 06:50:37;;;;;;;;;;;;;;;25.62;67.27;96457.80;608649;233;64923;-59
2021/12/09 06:53:04;;;;;;;;;;;;;;;25.60;68.24;96449.23;608514;233;67131;-59
2021/12/09 06:55:32;;;;;;;;;;;;;;;25.62;68.04;96458.59;608642;233;67035;-59
2021/12/09 06:58:01;;;;;;;;;;;;;;;25.59;61.48;96450.33;608702;233;65038;-61
2021/12/09 07:00:30;;;;;;;;;;;;;;;25.59;66.23;96459.22;608688;233;67014;-68
2021/12/09 07:02:58;;;;;;;;;;;;;;;25.54;57.76;96453.20;608671;233;64922;-65
2021/12/09 07:05:26;;;;;;;;;;;;;;;25.62;65.47;96458.59;608709;231;62760;-68
2021/12/09 07:07:54;;;;;;;;;;;;;;;25.67;61.40;96461.12;608697;233;67177;-66
2021/12/09 07:10:22;;;;;;;;;;;;;;;25.73;64.81;96461.77;608155;233;66971;-62
2021/12/09 07:12:49;;;;;;;;;;;;;;;25.77;61.14;96454.63;608194;233;63059;-60
2021/12/09 07:15:17;;;;;;;;;;;;;;;25.79;59.73;96451.64;602231;233;67258;-60
2021/12/09 07:17:45;;;;;;;;;;;;;;;25.83;60.25;96448.02;608166;233;66979;-60
2021/12/09 07:20:14;;;;;;;;;;;;;;;25.88;59.68;96453.23;608137;233;64906;-68
2021/12/09 07:22:41;;;;;;;;;;;;;;;25.90;60.21;96447.55;608284;233;65186;-60
2021/12/09 07:25:09;;;;;;;;;;;;;;;25.90;59.01;96448.34;608305;233;66663;-65
2021/12/09 07:27:37;;;;;;;;;;;;;;;25.93;59.07;96452.30;608247;233;65100;-63
2021/12/09 07:30:05;;;;;;;;;;;;;;;25.95;59.23;96443.92;608300;233;67226;-65
2021/12/09 07:32:33;;;;;;;;;;;;;;;25.97;62.78;96442.47;608113;233;67347;-67
2021/12/09 07:35:01;;;;;;;;;;;;;;;25.93;59.61;96438.05;608296;233;65058;-66
2021/12/09 07:37:29;;;;;;;;;;;;;;;26.00;59.62;96438.35;608245;233;67136;-67
2021/12/09 07:39:56;;;;;;;;;;;;;;;26.01;63.31;96439.95;608152;233;66896;-75
2021/12/09 07:42:25;;;;;;;;;;;;;;;25.98;59.75;96427.92;608196;233;65324;-68
2021/12/09 07:44:52;;;;;;;;;;;;;;;26.03;63.04;96421.59;608300;233;67152;-68
2021/12/09 07:47:20;;;;;;;;;;;;;;;26.03;63.05;96419.69;608191;233;67060;-68
2021/12/09 07:49:47;;;;;;;;;;;;;;;26.02;60.96;96411.91;608264;233;65030;-68
2021/12/09 07:52:15;;;;;;;;;;;;;;;26.04;58.49;96415.08;608242;233;66916;-68
2021/12/09 07:54:42;;;;;;;;;;;;;;;26.07;59.41;96431.38;609138;233;66977;-67
2021/12/09 07:57:10;;;;;;;;;;;;;;;26.09;57.10;96428.39;609446;233;64932;-69
2021/12/09 07:59:37;;;;;;;;;;;;;;;26.11;58.02;96418.09;609355;233;67277;-70
2021/12/09 08:02:05;;;;;;;;;;;;;;;26.13;57.08;96418.55;609392;233;66893;-68
2021/12/09 08:04:33;;;;;;;;;;;;;;;26.12;58.01;96427.75;609371;233;65178;-68
2021/12/09 08:07:01;;;;;;;;;;;;;;;26.12;59.20;96417.77;609308;233;67258;-67
2021/12/09 08:09:28;;;;;;;;;;;;;;;26.13;57.20;96413.16;609400;233;67006;-69
2021/12/09 08:11:56;;;;;;;;;;;;;;;26.15;58.76;96400.17;609383;233;62882;-68
2021/12/09 08:14:23;;;;;;;;;;;;;;;26.16;59.38;96404.44;609407;233;66821;-67
2021/12/09 08:17:09;;;;;;;;;;;;;;;26.17;59.73;96400.66;609314;233;67044;-68
2021/12/09 08:19:20;;;;;;;;;;;;;;;26.17;59.00;96410.64;608551;233;62740;-68
2021/12/09 08:21:47;;;;;;;;;;;;;;;26.16;56.95;96396.36;609349;233;64878;-66
2021/12/09 08:24:15;;;;;;;;;;;;;;;26.19;59.23;96395.75;609404;233;64909;-66
2021/12/09 08:26:42;;;;;;;;;;;;;;;26.20;59.48;96385.77;609404;233;62860;-65
2021/12/09 08:29:10;;;;;;;;;;;;;;;26.22;58.38;96386.21;609360;233;64913;-65
2021/12/09 08:31:37;;;;;;;;;;;;;;;26.22;59.31;96388.91;609423;233;64989;-66
2021/12/09 08:34:05;;;;;;;;;;;;;;;26.23;59.19;96388.59;609396;233;62909;-67
2021/12/09 08:36:33;;;;;;;;;;;;;;;26.22;58.57;96384.33;609271;233;65079;-68
2021/12/09 08:39:00;;;;;;;;;;;;;;;26.25;58.08;96389.08;609434;233;66857;-65
2021/12/09 08:41:28;;;;;;;;;;;;;;;26.25;59.66;96383.69;609415;233;65035;-69
2021/12/09 08:43:55;;;;;;;;;;;;;;;26.26;58.37;96382.56;609360;233;67071;-68
2021/12/09 08:46:23;;;;;;;;;;;;;;;26.29;59.67;96390.00;609362;233;67306;-68
2021/12/09 08:48:50;;;;;;;;;;;;;;;26.29;59.79;96384.62;609396;233;65037;-68
2021/12/09 08:51:18;;;;;;;;;;;;;;;26.29;58.36;96384.62;609307;233;67247;-66
2021/12/09 08:53:46;;;;;;;;;;;;;;;26.31;61.58;96371.63;608984;233;67227;-66
2021/12/09 08:56:14;;;;;;;;;;;;;;;26.29;57.44;96384.62;608633;233;62999;-68
2021/12/09 08:58:41;;;;;;;;;;;;;;;26.34;58.07;96389.84;608635;233;64918;-67
2021/12/09 09:01:12;;;;;;;;;;;;;;;26.37;56.50;96382.23;607654;233;67009;-67
2021/12/09 09:03:38;;;;;;;;;;;;;;;26.39;56.68;96378.11;599515;235;68633;-67
2021/12/09 09:06:06;;;;;;;;;;;;;;;26.40;57.57;96376.98;605139;234;66842;-67
2021/12/09 09:08:33;;;;;;;;;;;;;;;26.41;55.62;96375.08;606292;234;66943;-67
2021/12/09 09:11:01;;;;;;;;;;;;;;;26.41;54.81;96378.59;606196;234;63007;-66
2021/12/09 09:13:28;;;;;;;;;;;;;;;26.44;55.96;96377.94;606074;234;65259;-67
2021/12/09 09:15:56;;;;;;;;;;;;;;;26.44;54.89;96366.37;604280;234;64946;-67
2021/12/09 09:18:24;;;;;;;;;;;;;;;26.44;56.01;96344.83;604304;234;63818;-65
2021/12/09 09:20:51;;;;;;;;;;;;;;;26.46;54.52;96337.97;604428;234;65002;-67
2021/12/09 09:23:20;;;;;;;;;;;;;;;26.48;56.06;96340.36;604342;234;66828;-66
2021/12/09 09:25:49;;;;;;;;;;;;;;;26.48;55.96;96337.66;604420;234;62762;-67
2021/12/09 09:28:17;;;;;;;;;;;;;;;26.48;54.49;96333.06;604435;234;64669;-66
2021/12/09 09:30:52;;;;;;;;;;;;;;;26.49;55.12;96323.88;604408;234;66929;-66
2021/12/09 09:33:16;;;;;;;;;;;;;;;26.50;54.76;96330.05;604123;234;65169;-63
2021/12/09 09:35:45;;;;;;;;;;;;;;;26.48;57.83;96327.67;604412;234;64761;-62
2021/12/09 09:38:13;;;;;;;;;;;;;;;26.52;56.59;96322.48;604482;234;66852;-61
2021/12/09 09:40:50;;;;;;;;;;;;;;;26.52;57.59;96323.26;604406;234;65200;-61
2021/12/09 09:43:31;;;;;;;;;;;;;;;26.48;56.14;96319.59;604377;234;64504;-60
2021/12/09 09:45:58;;;;;;;;;;;;;;;26.50;56.98;96330.05;604354;234;66640;-60
2021/12/09 09:48:25;;;;;;;;;;;;;;;26.53;58.22;96326.73;604372;234;65805;-68
2021/12/09 09:50:55;;;;;;;;;;;;;;;26.46;57.26;96319.11;604445;234;66877;-67
2021/12/09 09:53:22;;;;;;;;;;;;;;;26.48;57.21;96326.88;604419;234;65636;-60
2021/12/09 09:55:50;;;;;;;;;;;;;;;26.48;57.91;96322.28;604876;234;64677;-68
2021/12/09 09:58:18;;;;;;;;;;;;;;;26.49;56.47;96323.88;606503;234;67211;-65
2021/12/09 10:00:46;;;;;;;;;;;;;;;26.42;59.28;96317.41;606413;234;67317;-66
2021/12/09 10:03:17;;;;;;;;;;;;;;;26.46;60.32;96297.55;606307;234;65103;-65
2021/12/09 10:05:49;;;;;;;;;;;;;;;26.49;59.13;96301.52;605313;234;67289;-61
2021/12/09 10:08:17;;;;;;;;;;;;;;;26.51;61.08;96299.32;606153;234;64909;-61
2021/12/09 10:10:47;;;;;;;;;;;;;;;26.47;59.43;96292.98;605665;233;46550;-60
2021/12/09 10:13:18;;;;;;;;;;;;;;;26.48;60.39;96305.33;606254;234;67169;-60
2021/12/09 10:15:49;;;;;;;;;;;;;;;26.48;60.32;96305.33;606469;234;65082;-64
2021/12/09 10:18:18;;;;;;;;;;;;;;;26.48;60.22;96294.55;606518;234;63048;-64
2021/12/09 10:20:47;;;;;;;;;;;;;;;26.47;59.53;96284.91;605338;234;64692;-64
2021/12/09 10:23:25;;;;;;;;;;;;;;;26.48;60.69;96284.56;606472;234;64682;-66
2021/12/09 10:26:11;;;;;;;;;;;;;;;26.46;61.01;96267.92;606489;234;65143;-65
2021/12/09 10:28:41;;;;;;;;;;;;;;;26.50;59.61;96276.16;606461;234;67106;-66
2021/12/09 10:31:11;;;;;;;;;;;;;;;26.53;60.35;96286.32;606265;234;67508;-65
2021/12/09 10:34:03;;;;;;;;;;;;;;;26.52;60.82;96265.89;606304;234;65067;-64
2021/12/09 10:36:42;;;;;;;;;;;;;;;26.54;60.85;96267.12;606207;234;65042;-64
2021/12/09 10:39:29;;;;;;;;;;;;;;;26.54;61.73;96255.55;606368;234;66896;-64
2021/12/09 10:41:58;;;;;;;;;;;;;;;26.54;61.50;96242.09;606406;234;65118;-64
2021/12/09 10:44:43;;;;;;;;;;;;;;;26.52;61.45;96247.03;606422;234;67266;-64
2021/12/09 10:47:21;;;;;;;;;;;;;;;26.53;61.12;96235.91;606399;234;64963;-64
2021/12/09 10:49:49;;;;;;;;;;;;;;;26.53;61.15;96232.44;606113;234;63130;-63
2021/12/09 10:52:26;;;;;;;;;;;;;;;26.54;61.46;96226.70;605256;234;65101;-65
2021/12/09 10:54:55;;;;;;;;;;;;;;;26.56;60.79;96210.22;606337;234;64805;-64
2021/12/09 10:57:30;;;;;;;;;;;;;;;26.55;60.89;96224.82;606503;234;65177;-64
2021/12/09 10:59:58;;;;;;;;;;;;;;;26.56;61.11;96221.78;606554;234;67274;-65
2021/12/09 11:02:26;;;;;;;;;;;;;;;26.56;60.94;96219.09;606498;234;66806;-66
2021/12/09 11:05:07;;;;;;;;;;;;;;;26.58;61.43;96215.30;606500;234;65011;-66
2021/12/09 11:07:34;;;;;;;;;;;;;;;26.55;61.48;96211.34;606558;234;67295;-66
2021/12/09 11:10:16;;;;;;;;;;;;;;;26.56;61.92;96194.84;606504;234;64668;-66
2021/12/09 11:12:51;;;;;;;;;;;;;;;26.57;61.15;96195.63;606162;234;65144;-71
2021/12/09 11:15:20;;;;;;;;;;;;;;;26.55;59.91;96197.87;606317;234;67199;-64
2021/12/09 11:17:50;;;;;;;;;;;;;;;26.55;59.77;96212.13;606481;234;65245;-66
2021/12/09 11:20:18;;;;;;;;;;;;;;;26.58;61.25;96191.83;606496;234;65852;-66
2021/12/09 11:22:46;;;;;;;;;;;;;;;26.60;60.41;96184.22;603897;233;67163;-64
2021/12/09 11:25:34;;;;;;;;;;;;;;;26.60;60.21;96200.38;606480;234;66785;-66
2021/12/09 11:28:12;;;;;;;;;;;;;;;26.62;59.26;96206.21;606358;233;62780;-64
2021/12/09 11:31:03;;;;;;;;;;;;;;;26.62;59.94;96202.73;606490;234;67376;-64
2021/12/09 11:33:32;;;;;;;;;;;;;;;26.63;58.89;96204.30;606378;233;67016;-64
2021/12/09 11:36:01;;;;;;;;;;;;;;;26.66;59.84;96206.37;606610;234;65379;-66
2021/12/09 11:38:55;;;;;;;;;;;;;;;26.65;59.04;96208.25;606473;234;66748;-64
2021/12/09 11:41:30;;;;;;;;;;;;;;;26.64;60.52;96203.98;605959;234;65076;-65
2021/12/09 11:43:57;;;;;;;;;;;;;;;26.66;59.73;96188.28;606139;234;63057;-66
2021/12/09 11:46:25;;;;;;;;;;;;;;;26.64;60.06;96187.81;606168;234;65349;-65
2021/12/09 11:48:52;;;;;;;;;;;;;;;26.65;58.17;96192.08;606012;234;64837;-67
2021/12/09 11:51:21;;;;;;;;;;;;;;;26.65;60.00;96183.99;606211;234;65107;-67
2021/12/09 11:53:55;;;;;;;;;;;;;;;26.65;59.38;96200.16;606125;234;64855;-66
2021/12/09 11:56:27;;;;;;;;;;;;;;;26.67;61.04;96197.16;605887;234;64941;-66
2021/12/09 11:59:22;;;;;;;;;;;;;;;26.64;59.62;96190.52;605904;234;64763;-67
2021/12/09 12:13:01;;;;;;;;;;;;;;;26.68;58.64;96207.63;606234;234;67015;-65
2021/12/09 12:15:44;;;;;;;;;;;;;;;26.69;59.23;96203.80;605939;234;65371;-65
2021/12/09 12:19:05;;;;;;;;;;;;;;;26.68;58.75;96222.98;605750;234;67384;-65
2021/12/09 12:20:48;;;;;;;;;;;;;;;26.69;59.51;96225.36;599823;234;64781;-65
2021/12/09 12:23:21;;;;;;;;;;;;;;;26.72;58.43;96232.00;605795;234;63027;-65
2021/12/09 12:39:34;;;;;;;;;;;;;;;26.74;59.66;96216.30;605939;234;44801;-65
2021/12/09 12:42:02;;;;;;;;;;;;;;;26.71;59.75;96220.44;605854;234;67327;-64
2021/12/09 12:44:30;;;;;;;;;;;;;;;26.73;59.49;96226.27;606008;234;65071;-66
2021/12/09 12:47:13;;;;;;;;;;;;;;;26.71;59.67;96225.83;606117;234;65270;-66
2021/12/09 12:49:34;;;;;;;;;;;;;;;26.73;59.14;96228.97;605317;234;67136;-65
2021/12/09 12:52:09;;;;;;;;;;;;;;;26.75;59.49;96234.05;605911;234;66592;-65
2021/12/09 12:54:42;;;;;;;;;;;;;;;26.76;59.00;96227.52;605977;234;63029;-65
2021/12/09 12:57:13;;;;;;;;;;;;;;;26.77;58.25;96231.81;605875;234;64386;-65
2021/12/09 12:59:39;;;;;;;;;;;;;;;26.75;58.83;96234.83;605858;233;66875;-68
2021/12/09 13:02:20;;;;;;;;;;;;;;;26.75;59.01;96234.05;605872;234;64957;-70
2021/12/09 13:04:57;;;;;;;;;;;;;;;26.78;58.95;96244.16;605902;234;67468;-67
2021/12/09 13:07:30;;;;;;;;;;;;;;;26.78;58.72;96244.16;605587;234;65728;-67
2021/12/09 13:10:00;;;;;;;;;;;;;;;26.78;59.93;96234.17;599886;234;63034;-67
2021/12/09 13:12:36;;;;;;;;;;;;;;;26.84;60.09;96223.98;605647;234;67086;-72
2021/12/09 13:15:08;;;;;;;;;;;;;;;26.82;58.62;96222.72;605987;234;66989;-69
2021/12/09 13:17:37;;;;;;;;;;;;;;;26.79;58.53;96227.67;605923;234;64896;-71
2021/12/09 13:20:11;;;;;;;;;;;;;;;26.83;58.48;96235.89;606202;234;67310;-70
2021/12/09 13:22:38;;;;;;;;;;;;;;;26.77;58.03;96229.12;605896;233;67130;-69
2021/12/09 13:25:24;;;;;;;;;;;;;;;26.75;59.13;96220.56;605910;234;65071;-74
2021/12/09 13:27:59;;;;;;;;;;;;;;;26.77;59.74;96226.42;605903;234;67246;-70
2021/12/09 13:36:05;;;;;;;;;;;;;;;26.74;57.42;96203.61;606100;234;67317;-69